sensor_id;sensor_type;location;lat;lon;timestamp;pressure;altitude;pressure_sealevel;temperature;humidity
6208;BME280;3137;51.550;7.060;2023-04-07T00:00:22;100882.41;;;7.31;95.77
6208;BME280;3137;51.550;7.060;2023-04-07T00:02:49;100885.94;;;7.32;95.69
6208;BME280;3137;51.550;7.060;2023-04-07T00:05:16;100881.63;;;7.29;95.67
6208;BME280;3137;51.550;7.060;2023-04-07T00:07:42;100880.59;;;7.32;95.74
6208;BME280;3137;51.550;7.060;2023-04-07T00:10:22;100887.56;;;7.34;95.48
6208;BME280;3137;51.550;7.060;2023-04-07T00:12:48;100877.09;;;7.31;96.13
6208;BME280;3137;51.550;7.060;2023-04-07T00:15:15;100878.63;;;7.35;95.90
6208;BME280;3137;51.550;7.060;2023-04-07T00:17:41;100869.28;;;7.28;95.60
6208;BME280;3137;51.550;7.060;2023-04-07T00:20:08;100867.97;;;7.35;95.53
6208;BME280;3137;51.550;7.060;2023-04-07T00:22:34;100875.97;;;7.35;95.54
6208;BME280;3137;51.550;7.060;2023-04-07T00:25:01;100875.00;;;7.36;95.97
6208;BME280;3137;51.550;7.060;2023-04-07T00:27:27;100877.25;;;7.44;95.69
6208;BME280;3137;51.550;7.060;2023-04-07T00:29:54;100879.91;;;7.44;95.72
6208;BME280;3137;51.550;7.060;2023-04-07T00:32:21;100869.25;;;7.44;95.82
6208;BME280;3137;51.550;7.060;2023-04-07T00:34:47;100866.50;;;7.45;95.55
6208;BME280;3137;51.550;7.060;2023-04-07T00:37:14;100874.50;;;7.45;95.88
6208;BME280;3137;51.550;7.060;2023-04-07T00:39:41;100868.66;;;7.39;96.21
6208;BME280;3137;51.550;7.060;2023-04-07T00:42:07;100870.22;;;7.43;95.53
6208;BME280;3137;51.550;7.060;2023-04-07T00:44:33;100867.53;;;7.43;95.64
6208;BME280;3137;51.550;7.060;2023-04-07T00:47:00;100871.84;;;7.45;95.99
6208;BME280;3137;51.550;7.060;2023-04-07T00:49:27;100871.75;;;7.47;95.39
6208;BME280;3137;51.550;7.060;2023-04-07T00:51:54;100870.03;;;7.46;95.96
6208;BME280;3137;51.550;7.060;2023-04-07T00:54:22;100865.22;;;7.53;95.65
6208;BME280;3137;51.550;7.060;2023-04-07T00:56:49;100860.91;;;7.50;95.77
6208;BME280;3137;51.550;7.060;2023-04-07T00:59:16;100861.69;;;7.52;95.64
6208;BME280;3137;51.550;7.060;2023-04-07T01:02:02;100860.91;;;7.50;96.12
6208;BME280;3137;51.550;7.060;2023-04-07T01:04:41;100860.16;;;7.48;96.09
6208;BME280;3137;51.550;7.060;2023-04-07T01:07:43;100861.50;;;7.55;96.15
6208;BME280;3137;51.550;7.060;2023-04-07T01:10:20;100854.38;;;7.56;96.03
6208;BME280;3137;51.550;7.060;2023-04-07T01:13:02;100856.00;;;7.58;95.60
6208;BME280;3137;51.550;7.060;2023-04-07T01:15:32;100852.47;;;7.58;95.94
6208;BME280;3137;51.550;7.060;2023-04-07T01:18:14;100849.81;;;7.58;95.74
6208;BME280;3137;51.550;7.060;2023-04-07T01:20:44;100849.81;;;7.58;95.62
6208;BME280;3137;51.550;7.060;2023-04-07T01:23:22;100853.06;;;7.63;95.80
6208;BME280;3137;51.550;7.060;2023-04-07T01:29:06;100851.44;;;7.60;95.54
6208;BME280;3137;51.550;7.060;2023-04-07T01:31:34;100844.16;;;7.64;95.57
6208;BME280;3137;51.550;7.060;2023-04-07T01:34:02;100845.25;;;7.60;95.56
6208;BME280;3137;51.550;7.060;2023-04-07T01:36:30;100845.94;;;7.63;95.51
6208;BME280;3137;51.550;7.060;2023-04-07T01:38:58;100849.28;;;7.67;96.09
6208;BME280;3137;51.550;7.060;2023-04-07T01:41:25;100854.69;;;7.65;95.68
6208;BME280;3137;51.550;7.060;2023-04-07T01:43:53;100856.50;;;7.65;95.83
6208;BME280;3137;51.550;7.060;2023-04-07T01:46:22;100851.88;;;7.69;96.01
6208;BME280;3137;51.550;7.060;2023-04-07T01:48:50;100849.97;;;7.71;95.94
6208;BME280;3137;51.550;7.060;2023-04-07T01:51:18;100850.84;;;7.71;95.34
6208;BME280;3137;51.550;7.060;2023-04-07T01:53:46;100856.06;;;7.73;95.91
6208;BME280;3137;51.550;7.060;2023-04-07T01:56:14;100847.03;;;7.75;95.96
6208;BME280;3137;51.550;7.060;2023-04-07T01:58:43;100841.28;;;7.83;95.77
6208;BME280;3137;51.550;7.060;2023-04-07T02:01:13;100847.81;;;7.77;95.73
6208;BME280;3137;51.550;7.060;2023-04-07T02:06:43;100844.47;;;7.74;95.34
6208;BME280;3137;51.550;7.060;2023-04-07T02:09:16;100841.22;;;7.69;95.85
6208;BME280;3137;51.550;7.060;2023-04-07T02:11:45;100843.78;;;7.70;96.13
6208;BME280;3137;51.550;7.060;2023-04-07T02:14:13;100845.25;;;7.76;95.90
6208;BME280;3137;51.550;7.060;2023-04-07T02:16:53;100841.88;;;7.72;96.24
6208;BME280;3137;51.550;7.060;2023-04-07T02:19:21;100839.13;;;7.74;96.25
6208;BME280;3137;51.550;7.060;2023-04-07T02:21:49;100833.88;;;7.72;96.21
6208;BME280;3137;51.550;7.060;2023-04-07T02:24:19;100841.81;;;7.74;96.38
6208;BME280;3137;51.550;7.060;2023-04-07T02:26:47;100831.47;;;7.67;96.58
6208;BME280;3137;51.550;7.060;2023-04-07T02:29:13;100839.41;;;7.69;96.46
6208;BME280;3137;51.550;7.060;2023-04-07T02:31:42;100840.19;;;7.71;96.30
6208;BME280;3137;51.550;7.060;2023-04-07T02:34:08;100834.84;;;7.71;96.60
6208;BME280;3137;51.550;7.060;2023-04-07T02:36:35;100841.88;;;7.72;96.18
6208;BME280;3137;51.550;7.060;2023-04-07T02:39:01;100837.41;;;7.73;96.75
6208;BME280;3137;51.550;7.060;2023-04-07T02:41:28;100845.41;;;7.73;96.79
6208;BME280;3137;51.550;7.060;2023-04-07T02:43:55;100839.91;;;7.76;96.85
6208;BME280;3137;51.550;7.060;2023-04-07T02:46:21;100846.94;;;7.77;96.74
6208;BME280;3137;51.550;7.060;2023-04-07T02:48:49;100837.91;;;7.79;97.13
6208;BME280;3137;51.550;7.060;2023-04-07T02:51:16;100837.84;;;7.81;97.09
6208;BME280;3137;51.550;7.060;2023-04-07T02:53:43;100834.78;;;7.87;97.45
6208;BME280;3137;51.550;7.060;2023-04-07T02:56:10;100840.31;;;7.84;97.20
6208;BME280;3137;51.550;7.060;2023-04-07T02:58:36;100841.94;;;7.86;97.11
6208;BME280;3137;51.550;7.060;2023-04-07T03:01:03;100841.94;;;7.86;97.74
6208;BME280;3137;51.550;7.060;2023-04-07T03:03:32;100837.38;;;7.88;97.53
6208;BME280;3137;51.550;7.060;2023-04-07T03:06:19;100840.81;;;7.91;97.39
6208;BME280;3137;51.550;7.060;2023-04-07T03:09:05;100841.84;;;7.88;98.28
6208;BME280;3137;51.550;7.060;2023-04-07T03:11:32;100844.59;;;7.86;97.93
6208;BME280;3137;51.550;7.060;2023-04-07T03:13:59;100847.94;;;7.90;97.95
6208;BME280;3137;51.550;7.060;2023-04-07T03:16:27;100847.94;;;7.90;98.06
6208;BME280;3137;51.550;7.060;2023-04-07T03:19:01;100847.66;;;7.95;98.02
6208;BME280;3137;51.550;7.060;2023-04-07T03:21:31;100846.31;;;7.87;97.80
6208;BME280;3137;51.550;7.060;2023-04-07T03:23:57;100846.22;;;7.89;97.62
6208;BME280;3137;51.550;7.060;2023-04-07T03:26:24;100847.06;;;7.89;98.15
6208;BME280;3137;51.550;7.060;2023-04-07T03:28:50;100844.41;;;7.89;97.83
6208;BME280;3137;51.550;7.060;2023-04-07T03:31:17;100841.09;;;7.86;98.18
6208;BME280;3137;51.550;7.060;2023-04-07T03:33:48;100843.47;;;7.91;97.84
6208;BME280;3137;51.550;7.060;2023-04-07T03:36:15;100851.56;;;7.89;97.79
6208;BME280;3137;51.550;7.060;2023-04-07T03:38:46;100844.41;;;7.89;97.64
6208;BME280;3137;51.550;7.060;2023-04-07T03:41:15;100845.38;;;7.88;97.63
6208;BME280;3137;51.550;7.060;2023-04-07T03:43:41;100856.03;;;7.88;97.85
6208;BME280;3137;51.550;7.060;2023-04-07T03:46:09;100856.97;;;7.87;97.94
6208;BME280;3137;51.550;7.060;2023-04-07T03:48:36;100851.75;;;7.86;97.38
6208;BME280;3137;51.550;7.060;2023-04-07T03:51:06;100851.81;;;7.84;97.70
6208;BME280;3137;51.550;7.060;2023-04-07T03:53:33;100848.13;;;7.87;97.69
6208;BME280;3137;51.550;7.060;2023-04-07T03:56:08;100858.00;;;7.85;97.83
6208;BME280;3137;51.550;7.060;2023-04-07T03:58:41;100865.06;;;7.86;97.71
6208;BME280;3137;51.550;7.060;2023-04-07T04:01:12;100863.25;;;7.86;97.98
6208;BME280;3137;51.550;7.060;2023-04-07T04:03:41;100865.84;;;7.88;97.52
6208;BME280;3137;51.550;7.060;2023-04-07T04:06:34;100865.06;;;7.86;98.13
6208;BME280;3137;51.550;7.060;2023-04-07T04:09:12;100871.94;;;7.90;97.88
6208;BME280;3137;51.550;7.060;2023-04-07T04:11:43;100869.38;;;7.88;97.74
6208;BME280;3137;51.550;7.060;2023-04-07T04:14:10;100872.13;;;7.87;98.15
6208;BME280;3137;51.550;7.060;2023-04-07T04:16:36;100879.25;;;7.86;97.36
6208;BME280;3137;51.550;7.060;2023-04-07T04:19:10;100870.50;;;7.84;97.85
6208;BME280;3137;51.550;7.060;2023-04-07T04:21:36;100876.34;;;7.91;98.26
6208;BME280;3137;51.550;7.060;2023-04-07T04:24:03;100875.47;;;7.91;97.34
6208;BME280;3137;51.550;7.060;2023-04-07T04:26:30;100880.69;;;7.92;98.10
6208;BME280;3137;51.550;7.060;2023-04-07T04:29:02;100872.88;;;7.89;98.09
6208;BME280;3137;51.550;7.060;2023-04-07T04:31:29;100874.59;;;7.90;97.81
6208;BME280;3137;51.550;7.060;2023-04-07T04:33:56;100879.00;;;7.91;97.68
6208;BME280;3137;51.550;7.060;2023-04-07T04:36:23;100886.91;;;7.93;97.45
6208;BME280;3137;51.550;7.060;2023-04-07T04:38:54;100878.22;;;7.89;97.42
6208;BME280;3137;51.550;7.060;2023-04-07T04:41:20;100887.06;;;7.89;97.80
6208;BME280;3137;51.550;7.060;2023-04-07T04:43:49;100892.66;;;7.85;97.59
6208;BME280;3137;51.550;7.060;2023-04-07T04:46:20;100895.19;;;7.88;97.31
6208;BME280;3137;51.550;7.060;2023-04-07T04:48:47;100900.84;;;7.82;97.93
6208;BME280;3137;51.550;7.060;2023-04-07T04:51:16;100898.97;;;7.84;97.42
6208;BME280;3137;51.550;7.060;2023-04-07T04:53:46;100903.44;;;7.83;97.90
6208;BME280;3137;51.550;7.060;2023-04-07T04:56:13;100902.59;;;7.83;97.30
6208;BME280;3137;51.550;7.060;2023-04-07T04:58:43;100901.31;;;7.74;97.24
6208;BME280;3137;51.550;7.060;2023-04-07T05:01:20;100906.25;;;7.80;97.34
6208;BME280;3137;51.550;7.060;2023-04-07T05:03:52;100908.25;;;7.77;97.35
6208;BME280;3137;51.550;7.060;2023-04-07T05:06:23;100906.44;;;7.77;97.41
6208;BME280;3137;51.550;7.060;2023-04-07T05:08:51;100906.44;;;7.77;97.56
6208;BME280;3137;51.550;7.060;2023-04-07T05:11:21;100916.06;;;7.80;97.37
6208;BME280;3137;51.550;7.060;2023-04-07T05:13:50;100915.41;;;7.76;97.66
6208;BME280;3137;51.550;7.060;2023-04-07T05:16:17;100918.94;;;7.77;97.91
6208;BME280;3137;51.550;7.060;2023-04-07T05:18:44;100918.16;;;7.75;97.30
6208;BME280;3137;51.550;7.060;2023-04-07T05:21:10;100928.88;;;7.73;97.38
6208;BME280;3137;51.550;7.060;2023-04-07T05:23:37;100931.91;;;7.67;97.68
6208;BME280;3137;51.550;7.060;2023-04-07T05:26:04;100928.88;;;7.73;97.56
6208;BME280;3137;51.550;7.060;2023-04-07T05:28:31;100933.63;;;7.68;97.35
6208;BME280;3137;51.550;7.060;2023-04-07T05:31:03;100927.53;;;7.66;97.29
6208;BME280;3137;51.550;7.060;2023-04-07T05:33:33;100932.25;;;7.61;96.69
6208;BME280;3137;51.550;7.060;2023-04-07T05:36:01;100932.34;;;7.59;97.51
6208;BME280;3137;51.550;7.060;2023-04-07T05:38:29;100939.56;;;7.57;97.09
6208;BME280;3137;51.550;7.060;2023-04-07T05:40:58;100935.88;;;7.60;97.10
6208;BME280;3137;51.550;7.060;2023-04-07T05:43:30;100936.66;;;7.62;97.36
6208;BME280;3137;51.550;7.060;2023-04-07T05:45:57;100933.88;;;7.63;97.09
6208;BME280;3137;51.550;7.060;2023-04-07T05:48:23;100943.63;;;7.64;97.20
6208;BME280;3137;51.550;7.060;2023-04-07T05:50:51;100941.81;;;7.65;97.23
6208;BME280;3137;51.550;7.060;2023-04-07T05:53:18;100949.03;;;7.63;96.83
6208;BME280;3137;51.550;7.060;2023-04-07T05:55:45;100943.69;;;7.63;97.33
6208;BME280;3137;51.550;7.060;2023-04-07T05:58:21;100948.25;;;7.61;96.76
6208;BME280;3137;51.550;7.060;2023-04-07T06:00:50;100950.84;;;7.62;97.18
6208;BME280;3137;51.550;7.060;2023-04-07T06:03:17;100959.63;;;7.64;96.87
6208;BME280;3137;51.550;7.060;2023-04-07T06:05:56;100959.50;;;7.66;97.33
6208;BME280;3137;51.550;7.060;2023-04-07T06:08:24;100961.44;;;7.64;96.66
6208;BME280;3137;51.550;7.060;2023-04-07T06:10:50;100962.28;;;7.64;97.40
6208;BME280;3137;51.550;7.060;2023-04-07T06:13:16;100973.97;;;7.62;97.08
6208;BME280;3137;51.550;7.060;2023-04-07T06:15:43;100968.63;;;7.62;97.22
6208;BME280;3137;51.550;7.060;2023-04-07T06:18:09;100972.09;;;7.64;97.42
6208;BME280;3137;51.550;7.060;2023-04-07T06:20:36;100976.47;;;7.65;97.11
6208;BME280;3137;51.550;7.060;2023-04-07T06:23:02;100978.34;;;7.63;97.63
6208;BME280;3137;51.550;7.060;2023-04-07T06:25:28;100973.00;;;7.63;97.44
6208;BME280;3137;51.550;7.060;2023-04-07T06:27:55;100982.75;;;7.64;97.70
6208;BME280;3137;51.550;7.060;2023-04-07T06:30:21;100978.28;;;7.64;97.62
6208;BME280;3137;51.550;7.060;2023-04-07T06:32:49;100975.00;;;7.59;97.86
6208;BME280;3137;51.550;7.060;2023-04-07T06:35:16;100983.69;;;7.63;97.88
6208;BME280;3137;51.550;7.060;2023-04-07T06:37:42;100980.75;;;7.67;98.02
6208;BME280;3137;51.550;7.060;2023-04-07T06:40:09;100988.09;;;7.64;97.56
6208;BME280;3137;51.550;7.060;2023-04-07T06:42:35;100983.41;;;7.67;97.64
6208;BME280;3137;51.550;7.060;2023-04-07T06:45:13;100990.50;;;7.69;97.93
6208;BME280;3137;51.550;7.060;2023-04-07T06:47:39;100994.16;;;7.66;97.71
6208;BME280;3137;51.550;7.060;2023-04-07T06:50:06;100993.31;;;7.65;97.51
6208;BME280;3137;51.550;7.060;2023-04-07T06:52:33;100993.22;;;7.67;97.53
6208;BME280;3137;51.550;7.060;2023-04-07T06:54:59;100989.59;;;7.68;97.53
6208;BME280;3137;51.550;7.060;2023-04-07T06:57:25;100998.63;;;7.65;97.81
6208;BME280;3137;51.550;7.060;2023-04-07T06:59:52;101005.59;;;7.68;97.90
6208;BME280;3137;51.550;7.060;2023-04-07T07:02:19;101003.91;;;7.67;97.65
6208;BME280;3137;51.550;7.060;2023-04-07T07:04:46;101007.00;;;7.59;97.59
6208;BME280;3137;51.550;7.060;2023-04-07T07:07:12;101009.72;;;7.58;97.82
6208;BME280;3137;51.550;7.060;2023-04-07T07:09:38;101001.72;;;7.58;98.09
6208;BME280;3137;51.550;7.060;2023-04-07T07:12:05;101005.25;;;7.58;97.73
6208;BME280;3137;51.550;7.060;2023-04-07T07:14:31;101005.44;;;7.55;97.92
6208;BME280;3137;51.550;7.060;2023-04-07T07:16:57;101008.78;;;7.59;97.73
6208;BME280;3137;51.550;7.060;2023-04-07T07:19:24;101010.50;;;7.60;98.16
6208;BME280;3137;51.550;7.060;2023-04-07T07:21:50;101013.41;;;7.55;98.21
6208;BME280;3137;51.550;7.060;2023-04-07T07:24:17;101014.03;;;7.60;98.50
6208;BME280;3137;51.550;7.060;2023-04-07T07:26:43;101017.41;;;7.64;97.99
6208;BME280;3137;51.550;7.060;2023-04-07T07:29:11;101022.56;;;7.67;98.54
6208;BME280;3137;51.550;7.060;2023-04-07T07:31:37;101030.47;;;7.69;98.16
6208;BME280;3137;51.550;7.060;2023-04-07T07:34:03;101027.72;;;7.70;97.92
6208;BME280;3137;51.550;7.060;2023-04-07T07:36:30;101025.03;;;7.70;98.26
6208;BME280;3137;51.550;7.060;2023-04-07T07:38:57;101021.69;;;7.66;97.97
6208;BME280;3137;51.550;7.060;2023-04-07T07:41:23;101025.81;;;7.72;98.38
6208;BME280;3137;51.550;7.060;2023-04-07T07:43:51;101030.19;;;7.73;97.77
6208;BME280;3137;51.550;7.060;2023-04-07T07:46:18;101038.28;;;7.72;97.81
6208;BME280;3137;51.550;7.060;2023-04-07T07:48:44;101038.28;;;7.72;97.88
6208;BME280;3137;51.550;7.060;2023-04-07T07:51:12;101032.53;;;7.79;98.66
6208;BME280;3137;51.550;7.060;2023-04-07T07:53:38;101037.78;;;7.81;97.82
6208;BME280;3137;51.550;7.060;2023-04-07T07:56:05;101039.25;;;7.86;98.07
6208;BME280;3137;51.550;7.060;2023-04-07T07:58:31;101049.91;;;7.86;97.96
6208;BME280;3137;51.550;7.060;2023-04-07T08:00:58;101041.84;;;7.88;98.08
6208;BME280;3137;51.550;7.060;2023-04-07T08:03:24;101053.25;;;7.90;98.42
6208;BME280;3137;51.550;7.060;2023-04-07T08:05:51;101049.59;;;7.93;98.52
6208;BME280;3137;51.550;7.060;2023-04-07T08:08:17;101058.34;;;7.95;97.91
6208;BME280;3137;51.550;7.060;2023-04-07T08:10:44;101062.81;;;7.94;97.71
6208;BME280;3137;51.550;7.060;2023-04-07T08:13:10;101066.28;;;7.96;97.78
6208;BME280;3137;51.550;7.060;2023-04-07T08:15:38;101067.22;;;7.95;97.60
6208;BME280;3137;51.550;7.060;2023-04-07T08:18:04;101070.31;;;8.03;97.58
6208;BME280;3137;51.550;7.060;2023-04-07T08:20:32;101072.97;;;8.03;98.25
6208;BME280;3137;51.550;7.060;2023-04-07T08:22:59;101074.63;;;8.06;97.65
6208;BME280;3137;51.550;7.060;2023-04-07T08:25:27;101075.22;;;8.11;97.83
6208;BME280;3137;51.550;7.060;2023-04-07T08:27:54;101066.28;;;8.12;97.71
6208;BME280;3137;51.550;7.060;2023-04-07T08:30:20;101071.38;;;8.17;98.02
6208;BME280;3137;51.550;7.060;2023-04-07T08:32:47;101070.31;;;8.19;97.78
6208;BME280;3137;51.550;7.060;2023-04-07T08:35:14;101075.75;;;8.18;97.86
6208;BME280;3137;51.550;7.060;2023-04-07T08:37:40;101073.84;;;8.20;97.35
6208;BME280;3137;51.550;7.060;2023-04-07T08:40:09;101082.63;;;8.22;97.14
6208;BME280;3137;51.550;7.060;2023-04-07T08:42:40;101077.19;;;8.23;97.02
6208;BME280;3137;51.550;7.060;2023-04-07T08:45:08;101083.41;;;8.24;97.05
6208;BME280;3137;51.550;7.060;2023-04-07T08:47:36;101083.03;;;8.30;96.99
6208;BME280;3137;51.550;7.060;2023-04-07T08:50:07;101077.88;;;8.27;97.14
6208;BME280;3137;51.550;7.060;2023-04-07T08:52:44;101087.44;;;8.31;96.48
6208;BME280;3137;51.550;7.060;2023-04-07T08:55:14;101094.84;;;8.26;96.77
6208;BME280;3137;51.550;7.060;2023-04-07T08:57:41;101093.72;;;8.30;97.00
6208;BME280;3137;51.550;7.060;2023-04-07T09:00:08;101090.00;;;8.32;97.01
6208;BME280;3137;51.550;7.060;2023-04-07T09:02:40;101101.72;;;8.30;96.76
6208;BME280;3137;51.550;7.060;2023-04-07T09:05:09;101102.31;;;8.35;96.45
6208;BME280;3137;51.550;7.060;2023-04-07T09:07:36;101099.28;;;8.43;96.15
6208;BME280;3137;51.550;7.060;2023-04-07T09:10:04;101103.66;;;8.44;96.53
6208;BME280;3137;51.550;7.060;2023-04-07T09:12:31;101103.56;;;8.45;96.24
6208;BME280;3137;51.550;7.060;2023-04-07T09:14:58;101113.38;;;8.45;96.46
6208;BME280;3137;51.550;7.060;2023-04-07T09:17:26;101112.06;;;8.52;96.33
6208;BME280;3137;51.550;7.060;2023-04-07T09:19:55;101118.38;;;8.51;96.48
6208;BME280;3137;51.550;7.060;2023-04-07T09:22:39;101119.22;;;8.51;96.26
6208;BME280;3137;51.550;7.060;2023-04-07T09:25:20;101117.94;;;8.59;96.76
6208;BME280;3137;51.550;7.060;2023-04-07T09:27:59;101109.91;;;8.59;95.84
6208;BME280;3137;51.550;7.060;2023-04-07T09:30:27;101122.22;;;8.61;96.26
6208;BME280;3137;51.550;7.060;2023-04-07T09:32:54;101117.00;;;8.60;95.47
6208;BME280;3137;51.550;7.060;2023-04-07T09:35:21;101114.00;;;8.50;95.51
6208;BME280;3137;51.550;7.060;2023-04-07T09:38:06;101112.19;;;8.50;95.98
6208;BME280;3137;51.550;7.060;2023-04-07T09:40:33;101115.78;;;8.49;95.75
6208;BME280;3137;51.550;7.060;2023-04-07T09:43:02;101113.69;;;8.55;96.10
6208;BME280;3137;51.550;7.060;2023-04-07T09:45:29;101116.03;;;8.45;95.92
6208;BME280;3137;51.550;7.060;2023-04-07T09:48:29;101114.06;;;8.48;95.96
6208;BME280;3137;51.550;7.060;2023-04-07T09:51:04;101111.16;;;8.53;96.01
6208;BME280;3137;51.550;7.060;2023-04-07T09:53:48;101121.44;;;8.59;95.39
6208;BME280;3137;51.550;7.060;2023-04-07T09:56:17;101122.16;;;8.63;95.77
6208;BME280;3137;51.550;7.060;2023-04-07T09:58:45;101123.09;;;8.62;94.88
6208;BME280;3137;51.550;7.060;2023-04-07T10:01:13;101119.66;;;8.60;95.46
6208;BME280;3137;51.550;7.060;2023-04-07T10:03:41;101120.53;;;8.60;95.46
6208;BME280;3137;51.550;7.060;2023-04-07T10:06:08;101128.34;;;8.63;95.24
6208;BME280;3137;51.550;7.060;2023-04-07T10:08:37;101129.78;;;8.69;95.69
6208;BME280;3137;51.550;7.060;2023-04-07T10:11:05;101132.13;;;8.75;95.30
6208;BME280;3137;51.550;7.060;2023-04-07T10:13:34;101126.53;;;8.80;95.33
6208;BME280;3137;51.550;7.060;2023-04-07T10:16:05;101135.13;;;8.85;96.12
6208;BME280;3137;51.550;7.060;2023-04-07T10:18:33;101133.03;;;8.90;95.48
6208;BME280;3137;51.550;7.060;2023-04-07T10:21:02;101137.19;;;8.96;95.57
6208;BME280;3137;51.550;7.060;2023-04-07T10:23:39;101138.31;;;8.91;95.01
6208;BME280;3137;51.550;7.060;2023-04-07T10:26:09;101136.13;;;8.98;95.11
6208;BME280;3137;51.550;7.060;2023-04-07T10:28:37;101136.72;;;9.03;94.50
6208;BME280;3137;51.550;7.060;2023-04-07T10:31:06;101146.38;;;9.06;94.78
6208;BME280;3137;51.550;7.060;2023-04-07T10:33:52;101152.44;;;8.93;94.97
6208;BME280;3137;51.550;7.060;2023-04-07T10:36:20;101150.25;;;9.00;94.93
6208;BME280;3137;51.550;7.060;2023-04-07T10:41:35;101157.84;;;8.92;95.06
6208;BME280;3137;51.550;7.060;2023-04-07T10:44:03;101151.91;;;8.87;95.39
6208;BME280;3137;51.550;7.060;2023-04-07T10:49:15;101157.84;;;8.92;95.50
6208;BME280;3137;51.550;7.060;2023-04-07T10:54:40;101159.16;;;8.85;95.21
6208;BME280;3137;51.550;7.060;2023-04-07T10:57:13;101165.00;;;8.91;95.07
6208;BME280;3137;51.550;7.060;2023-04-07T11:02:38;101168.34;;;8.95;95.95
6208;BME280;3137;51.550;7.060;2023-04-07T11:05:05;101173.03;;;8.91;96.01
6208;BME280;3137;51.550;7.060;2023-04-07T11:07:47;101172.25;;;8.89;95.78
6208;BME280;3137;51.550;7.060;2023-04-07T11:10:15;101180.25;;;8.89;95.54
6208;BME280;3137;51.550;7.060;2023-04-07T11:12:56;101173.03;;;8.91;95.56
6208;BME280;3137;51.550;7.060;2023-04-07T11:15:23;101171.81;;;8.97;95.81
6208;BME280;3137;51.550;7.060;2023-04-07T11:18:09;101178.25;;;8.93;95.63
6208;BME280;3137;51.550;7.060;2023-04-07T11:20:44;101183.34;;;8.98;95.95
6208;BME280;3137;51.550;7.060;2023-04-07T11:23:13;101179.81;;;8.97;95.71
6208;BME280;3137;51.550;7.060;2023-04-07T11:25:44;101181.81;;;8.93;95.35
6208;BME280;3137;51.550;7.060;2023-04-07T11:28:12;101180.19;;;8.91;95.35
6208;BME280;3137;51.550;7.060;2023-04-07T11:30:44;101180.44;;;8.86;95.25
6208;BME280;3137;51.550;7.060;2023-04-07T11:33:15;101182.94;;;8.89;95.38
6208;BME280;3137;51.550;7.060;2023-04-07T11:35:50;101183.19;;;8.85;95.55
6208;BME280;3137;51.550;7.060;2023-04-07T11:38:17;101191.03;;;8.88;95.27
6208;BME280;3137;51.550;7.060;2023-04-07T11:40:44;101190.25;;;8.86;95.76
6208;BME280;3137;51.550;7.060;2023-04-07T11:43:24;101191.81;;;8.90;95.19
6208;BME280;3137;51.550;7.060;2023-04-07T11:46:04;101191.03;;;8.88;95.80
6208;BME280;3137;51.550;7.060;2023-04-07T11:48:33;101198.19;;;8.87;95.13
6208;BME280;3137;51.550;7.060;2023-04-07T11:51:00;101197.06;;;8.91;95.50
6208;BME280;3137;51.550;7.060;2023-04-07T11:53:32;101196.81;;;8.96;95.36
6208;BME280;3137;51.550;7.060;2023-04-07T11:56:03;101204.03;;;8.94;95.21
6208;BME280;3137;51.550;7.060;2023-04-07T11:58:29;101206.13;;;8.89;95.11
6208;BME280;3137;51.550;7.060;2023-04-07T12:00:57;101214.81;;;8.92;95.38
6208;BME280;3137;51.550;7.060;2023-04-07T12:03:24;101212.97;;;8.93;94.78
6208;BME280;3137;51.550;7.060;2023-04-07T12:05:50;101215.16;;;8.86;94.36
6208;BME280;3137;51.550;7.060;2023-04-07T12:08:17;101224.13;;;8.85;94.95
6208;BME280;3137;51.550;7.060;2023-04-07T12:10:44;101218.78;;;8.85;94.87
6208;BME280;3137;51.550;7.060;2023-04-07T12:13:12;101223.84;;;8.90;94.85
6208;BME280;3137;51.550;7.060;2023-04-07T12:15:38;101220.41;;;8.88;94.97
6208;BME280;3137;51.550;7.060;2023-04-07T12:18:05;101230.06;;;8.90;94.74
6208;BME280;3137;51.550;7.060;2023-04-07T12:20:32;101225.59;;;8.91;94.74
6208;BME280;3137;51.550;7.060;2023-04-07T12:22:58;101230.22;;;8.87;94.92
6208;BME280;3137;51.550;7.060;2023-04-07T12:25:25;101228.41;;;8.88;94.87
6208;BME280;3137;51.550;7.060;2023-04-07T12:27:52;101235.75;;;8.84;94.93
6208;BME280;3137;51.550;7.060;2023-04-07T12:30:19;101232.31;;;8.82;94.82
6208;BME280;3137;51.550;7.060;2023-04-07T12:32:45;101226.97;;;8.82;94.58
6208;BME280;3137;51.550;7.060;2023-04-07T12:35:11;101236.88;;;8.80;94.76
6208;BME280;3137;51.550;7.060;2023-04-07T12:37:38;101236.69;;;8.83;94.98
6208;BME280;3137;51.550;7.060;2023-04-07T12:40:05;101242.38;;;8.93;94.57
6208;BME280;3137;51.550;7.060;2023-04-07T12:42:31;101238.94;;;8.91;94.36
6208;BME280;3137;51.550;7.060;2023-04-07T12:44:58;101242.47;;;8.91;94.73
6208;BME280;3137;51.550;7.060;2023-04-07T12:47:24;101245.56;;;9.00;94.45
6208;BME280;3137;51.550;7.060;2023-04-07T12:49:51;101247.38;;;8.99;94.52
6208;BME280;3137;51.550;7.060;2023-04-07T12:52:17;101253.41;;;9.03;94.56
6208;BME280;3137;51.550;7.060;2023-04-07T12:54:43;101257.63;;;9.07;94.74
6208;BME280;3137;51.550;7.060;2023-04-07T12:57:10;101253.84;;;9.11;95.08
6208;BME280;3137;51.550;7.060;2023-04-07T12:59:36;101258.91;;;9.15;94.96
6208;BME280;3137;51.550;7.060;2023-04-07T13:02:03;101260.88;;;9.12;94.81
6208;BME280;3137;51.550;7.060;2023-04-07T13:04:30;101258.06;;;9.15;94.65
6208;BME280;3137;51.550;7.060;2023-04-07T13:06:56;101255.53;;;9.12;93.85
6208;BME280;3137;51.550;7.060;2023-04-07T13:09:23;101266.94;;;9.15;93.91
6208;BME280;3137;51.550;7.060;2023-04-07T13:11:50;101266.22;;;9.12;94.03
6208;BME280;3137;51.550;7.060;2023-04-07T13:14:16;101264.19;;;9.17;93.88
6208;BME280;3137;51.550;7.060;2023-04-07T13:16:43;101262.25;;;9.19;93.43
6208;BME280;3137;51.550;7.060;2023-04-07T13:19:09;101262.09;;;9.22;93.48
6208;BME280;3137;51.550;7.060;2023-04-07T13:21:36;101268.13;;;9.26;93.27
6208;BME280;3137;51.550;7.060;2023-04-07T13:24:05;101268.81;;;9.29;93.28
6208;BME280;3137;51.550;7.060;2023-04-07T13:26:32;101269.75;;;9.28;93.19
6208;BME280;3137;51.550;7.060;2023-04-07T13:28:58;101273.00;;;9.33;93.45
6208;BME280;3137;51.550;7.060;2023-04-07T13:31:24;101264.25;;;9.31;92.72
6208;BME280;3137;51.550;7.060;2023-04-07T13:33:51;101267.84;;;9.30;92.57
6208;BME280;3137;51.550;7.060;2023-04-07T13:36:17;101268.91;;;9.28;92.70
6208;BME280;3137;51.550;7.060;2023-04-07T13:38:47;101260.88;;;9.28;92.78
6208;BME280;3137;51.550;7.060;2023-04-07T13:41:13;101268.72;;;9.31;92.45
6208;BME280;3137;51.550;7.060;2023-04-07T13:43:39;101274.75;;;9.34;92.46
6208;BME280;3137;51.550;7.060;2023-04-07T13:46:06;101279.13;;;9.35;91.85
6208;BME280;3137;51.550;7.060;2023-04-07T13:48:50;101277.44;;;9.34;92.05